createdAt,value
2023-03-04T00:00:14.927Z,5.23
2023-03-04T00:03:01.498Z,5.24
2023-03-04T00:05:48.206Z,5.24
2023-03-04T00:08:34.537Z,5.19
2023-03-04T00:11:20.546Z,5.21
2023-03-04T00:14:08.263Z,5.22
2023-03-04T00:16:54.673Z,5.21
2023-03-04T00:19:41.155Z,5.16
2023-03-04T00:22:27.572Z,5.12
2023-03-04T00:25:14.193Z,5.19
2023-03-04T00:28:00.976Z,5.17
2023-03-04T00:30:49.071Z,5.22
2023-03-04T00:33:35.627Z,5.20
2023-03-04T00:36:22.175Z,5.21
2023-03-04T00:39:08.364Z,5.19
2023-03-04T00:41:55.553Z,5.13
2023-03-04T00:44:41.861Z,5.15
2023-03-04T00:47:29.507Z,5.15
2023-03-04T00:50:16.634Z,5.13
2023-03-04T00:53:02.853Z,5.19
2023-03-04T00:55:49.335Z,5.14
2023-03-04T00:58:35.792Z,5.11
2023-03-04T01:01:22.150Z,5.15
2023-03-04T01:04:10.143Z,5.14
2023-03-04T01:06:56.439Z,5.13
2023-03-04T01:09:42.871Z,5.15
2023-03-04T01:12:30.279Z,5.11
2023-03-04T01:15:16.940Z,5.10
2023-03-04T01:18:03.244Z,5.08
2023-03-04T01:20:51.198Z,5.11
2023-03-04T01:23:37.638Z,5.10
2023-03-04T01:26:24.261Z,5.05
2023-03-04T01:29:10.482Z,5.09
2023-03-04T01:31:56.990Z,5.12
2023-03-04T01:34:43.445Z,5.11
2023-03-04T01:37:31.136Z,5.08
2023-03-04T01:40:17.663Z,5.02
2023-03-04T01:43:04.652Z,5.03
2023-03-04T01:45:53.029Z,4.97
2023-03-04T01:48:40.235Z,5.00
2023-03-04T01:51:26.805Z,5.01
2023-03-04T01:54:14.648Z,5.02
2023-03-04T01:57:01.477Z,4.95
2023-03-04T01:59:48.538Z,4.96
2023-03-04T02:02:34.575Z,5.02
2023-03-04T02:05:22.494Z,5.03
2023-03-04T02:08:11.589Z,4.98
2023-03-04T02:10:59.242Z,4.98
2023-03-04T02:13:45.776Z,4.94
2023-03-04T02:16:32.986Z,4.95
2023-03-04T02:19:34.301Z,4.95
2023-03-04T02:22:20.689Z,4.93
2023-03-04T02:25:11.983Z,4.99
2023-03-04T02:27:59.561Z,4.92
2023-03-04T02:30:46.164Z,4.85
2023-03-04T02:33:33.165Z,4.92
2023-03-04T02:36:20.088Z,4.88
2023-03-04T02:39:11.957Z,4.87
2023-03-04T02:41:58.737Z,4.91
2023-03-04T02:44:50.476Z,4.86
2023-03-04T02:47:38.993Z,4.84
2023-03-04T02:50:27.071Z,4.87
2023-03-04T02:53:13.528Z,4.88
2023-03-04T02:55:59.948Z,4.90
2023-03-04T02:58:51.548Z,4.95
2023-03-04T03:01:39.608Z,4.97
2023-03-04T03:04:27.411Z,4.95
2023-03-04T03:07:14.791Z,4.94
2023-03-04T03:10:01.933Z,4.93
2023-03-04T03:12:49.478Z,4.89
2023-03-04T03:15:35.659Z,4.95
2023-03-04T03:18:23.166Z,4.92
2023-03-04T03:21:09.715Z,4.96
2023-03-04T03:23:56.265Z,4.92
2023-03-04T03:26:42.662Z,4.93
2023-03-04T03:29:29.038Z,4.92
2023-03-04T03:32:15.649Z,4.90
2023-03-04T03:35:03.604Z,4.90
2023-03-04T03:37:50.045Z,4.97
2023-03-04T03:40:36.351Z,4.92
2023-03-04T03:43:23.010Z,4.89
2023-03-04T03:46:09.473Z,4.89
2023-03-04T03:48:55.892Z,4.87
2023-03-04T03:51:44.586Z,4.89
2023-03-04T03:54:30.680Z,4.90
2023-03-04T03:57:17.149Z,4.89
2023-03-04T04:00:05.562Z,4.90
2023-03-04T04:03:00.948Z,4.92
2023-03-04T04:05:47.317Z,4.93
2023-03-04T04:08:35.162Z,4.88
2023-03-04T04:11:21.956Z,4.90
2023-03-04T04:14:09.838Z,4.89
2023-03-04T04:16:56.264Z,4.85
2023-03-04T04:19:42.910Z,4.82
2023-03-04T04:22:29.416Z,4.83
2023-03-04T04:25:17.430Z,4.83
2023-03-04T04:28:03.670Z,4.83
2023-03-04T04:30:49.998Z,4.85
2023-03-04T04:33:36.433Z,4.80
2023-03-04T04:36:22.806Z,4.79
2023-03-04T04:39:09.384Z,4.82
2023-03-04T04:41:57.347Z,4.83
2023-03-04T04:44:43.667Z,4.78
2023-03-04T04:47:29.947Z,4.79
2023-03-04T04:50:16.456Z,4.70
2023-03-04T04:53:02.702Z,4.75
2023-03-04T04:55:49.320Z,4.72
2023-03-04T04:58:37.281Z,4.71
2023-03-04T05:01:23.464Z,4.72
2023-03-04T05:04:10.245Z,4.70
2023-03-04T05:06:56.896Z,4.72
2023-03-04T05:09:43.528Z,4.73
2023-03-04T05:12:30.138Z,4.69
2023-03-04T05:15:18.470Z,4.67
2023-03-04T05:18:04.722Z,4.68
2023-03-04T05:20:52.389Z,4.73
2023-03-04T05:23:42.004Z,4.71
2023-03-04T05:26:28.093Z,4.73
2023-03-04T05:29:14.775Z,4.76
2023-03-04T05:32:02.697Z,4.72
2023-03-04T05:34:49.133Z,4.75
2023-03-04T05:37:35.657Z,4.72
2023-03-04T05:40:21.801Z,4.73
2023-03-04T05:43:08.677Z,4.74
2023-03-04T05:45:55.431Z,4.75
2023-03-04T05:48:43.187Z,4.79
2023-03-04T05:51:29.765Z,4.72
2023-03-04T05:54:16.365Z,4.72
2023-03-04T05:57:02.831Z,4.69
2023-03-04T05:59:48.936Z,4.58
2023-03-04T06:02:35.349Z,4.56
2023-03-04T06:05:23.375Z,4.57
2023-03-04T06:08:09.492Z,4.58
2023-03-04T06:10:57.496Z,4.49
2023-03-04T06:13:44.121Z,4.51
2023-03-04T06:16:30.715Z,4.60
2023-03-04T06:19:17.090Z,4.57
2023-03-04T06:22:04.978Z,4.59
2023-03-04T06:24:51.367Z,4.60
2023-03-04T06:27:37.792Z,4.63
2023-03-04T06:30:25.055Z,4.60
2023-03-04T06:33:11.460Z,4.56
2023-03-04T06:35:58.417Z,4.64
2023-03-04T06:38:47.034Z,4.65
2023-03-04T06:41:34.108Z,4.63
2023-03-04T06:44:20.987Z,4.66
2023-03-04T06:47:07.122Z,4.67
2023-03-04T06:49:53.747Z,4.67
2023-03-04T06:52:40.399Z,4.68
2023-03-04T06:55:28.238Z,4.72
2023-03-04T06:58:14.717Z,4.78
2023-03-04T07:01:15.584Z,4.89
2023-03-04T07:04:02.556Z,4.92
2023-03-04T07:06:49.459Z,4.96
2023-03-04T07:09:36.067Z,5.07
2023-03-04T07:12:26.417Z,4.92
2023-03-04T07:15:13.166Z,4.89
2023-03-04T07:17:59.733Z,4.97
2023-03-04T07:20:46.045Z,5.01
2023-03-04T07:23:33.027Z,4.94
2023-03-04T07:26:19.658Z,4.96
2023-03-04T07:29:07.460Z,4.95
2023-03-04T07:31:54.019Z,4.90
2023-03-04T07:34:40.293Z,4.95
2023-03-04T07:37:26.773Z,5.05
2023-03-04T07:40:14.001Z,5.04
2023-03-04T07:43:00.200Z,5.02
2023-03-04T07:45:49.011Z,5.19
2023-03-04T07:48:35.601Z,5.40
2023-03-04T07:51:23.766Z,5.44
2023-03-04T07:54:11.186Z,5.57
2023-03-04T07:56:57.769Z,5.64
2023-03-04T07:59:44.261Z,5.76
2023-03-04T08:02:31.927Z,5.85
2023-03-04T08:05:18.595Z,6.04
2023-03-04T08:08:04.874Z,6.01
2023-03-04T08:10:51.441Z,6.12
2023-03-04T08:13:37.769Z,6.28
2023-03-04T08:16:25.736Z,6.27
2023-03-04T08:19:13.776Z,6.34
2023-03-04T08:22:00.452Z,6.60
2023-03-04T08:24:46.578Z,6.71
2023-03-04T08:27:32.846Z,6.57
2023-03-04T08:30:19.546Z,6.48
2023-03-04T08:33:05.844Z,6.63
2023-03-04T08:35:53.986Z,6.67
2023-03-04T08:38:42.837Z,6.72
2023-03-04T08:41:29.363Z,6.79
2023-03-04T08:44:16.158Z,6.71
2023-03-04T08:47:02.285Z,6.97
2023-03-04T08:49:48.672Z,7.21
2023-03-04T08:52:36.317Z,7.15
2023-03-04T08:55:22.563Z,7.09
2023-03-04T08:58:09.966Z,7.20
2023-03-04T09:00:56.331Z,7.50
2023-03-04T09:03:43.663Z,7.60
2023-03-04T09:06:29.949Z,7.88
2023-03-04T09:09:17.639Z,7.89
2023-03-04T09:12:04.064Z,7.74
2023-03-04T09:15:04.584Z,7.57
2023-03-04T09:17:54.897Z,7.61
2023-03-04T09:20:41.475Z,7.73
2023-03-04T09:23:28.104Z,7.77
2023-03-04T09:26:18.595Z,8.03
2023-03-04T09:29:06.594Z,7.96
2023-03-04T09:31:53.301Z,7.50
2023-03-04T09:34:39.686Z,7.48
2023-03-04T09:37:26.104Z,7.49
2023-03-04T09:40:19.338Z,7.55
2023-03-04T09:43:13.533Z,7.79
2023-03-04T09:46:02.545Z,7.94
2023-03-04T09:48:52.351Z,8.02
2023-03-04T09:51:56.659Z,7.95
2023-03-04T09:54:59.275Z,7.73
2023-03-04T09:57:51.330Z,7.61
2023-03-04T10:00:42.814Z,7.52
2023-03-04T10:03:42.889Z,7.50
2023-03-04T10:06:32.143Z,8.02
2023-03-04T10:09:24.018Z,8.36
2023-03-04T10:12:14.960Z,8.17
2023-03-04T10:15:05.315Z,8.30
2023-03-04T10:17:58.399Z,8.00
2023-03-04T10:20:54.212Z,7.48
2023-03-04T10:23:41.841Z,7.41
2023-03-04T10:26:33.442Z,7.38
2023-03-04T10:29:21.710Z,7.60
2023-03-04T10:32:13.196Z,7.69
2023-03-04T10:35:01.361Z,7.68
2023-03-04T10:37:50.529Z,8.19
2023-03-04T10:40:40.223Z,8.68
2023-03-04T10:43:27.034Z,9.28
2023-03-04T10:46:14.031Z,8.98
2023-03-04T10:49:00.680Z,8.90
2023-03-04T10:51:50.058Z,8.64
2023-03-04T10:54:43.925Z,8.37
2023-03-04T10:57:36.315Z,8.55
2023-03-04T11:00:31.988Z,8.75
2023-03-04T11:03:29.207Z,8.96
2023-03-04T11:06:21.070Z,8.75
2023-03-04T11:09:23.140Z,8.18
2023-03-04T11:12:13.065Z,7.56
2023-03-04T11:14:59.913Z,7.30
2023-03-04T11:17:51.220Z,7.11
2023-03-04T11:20:40.480Z,7.15
2023-03-04T11:23:36.140Z,7.10
2023-03-04T11:26:29.807Z,7.32
2023-03-04T11:29:19.345Z,7.86
2023-03-04T11:32:12.828Z,8.14
2023-03-04T11:35:07.665Z,8.49
2023-03-04T11:38:03.517Z,8.16
2023-03-04T11:40:55.117Z,8.15
2023-03-04T11:43:45.689Z,7.98
2023-03-04T11:46:52.545Z,7.64
2023-03-04T11:50:01.131Z,7.48
2023-03-04T11:53:24.422Z,7.06
2023-03-04T11:56:37.071Z,6.89
2023-03-04T11:59:50.966Z,6.44
2023-03-04T12:02:46.678Z,6.28
2023-03-04T12:05:44.765Z,6.29
2023-03-04T12:09:00.126Z,6.46
2023-03-04T12:11:58.083Z,6.82
2023-03-04T12:14:51.309Z,6.98
2023-03-04T12:18:09.788Z,7.28
2023-03-04T12:21:15.218Z,7.69
2023-03-04T12:24:23.721Z,7.85
2023-03-04T12:27:21.866Z,8.00
2023-03-04T12:30:21.198Z,8.20
2023-03-04T12:33:21.269Z,8.08
2023-03-04T12:36:18.643Z,7.86
2023-03-04T12:39:20.527Z,7.57
2023-03-04T12:42:19.543Z,6.76
2023-03-04T12:45:21.345Z,6.46
2023-03-04T12:48:17.277Z,6.47
2023-03-04T12:51:26.500Z,6.57
2023-03-04T12:54:26.055Z,6.47
2023-03-04T12:57:15.077Z,6.67
2023-03-04T13:00:17.906Z,6.80
2023-03-04T13:03:11.948Z,6.90
2023-03-04T13:06:10.226Z,7.09
2023-03-04T13:09:03.438Z,7.24
2023-03-04T13:11:55.906Z,7.18
2023-03-04T13:15:27.737Z,7.14
2023-03-04T13:18:32.734Z,7.33
2023-03-04T13:21:24.816Z,7.23
2023-03-04T13:24:45.842Z,7.13
2023-03-04T13:27:49.964Z,7.41
2023-03-04T13:30:44.707Z,7.74
2023-03-04T13:34:02.947Z,7.86
2023-03-04T13:36:59.206Z,7.97
2023-03-04T13:39:45.875Z,7.36
2023-03-04T13:42:43.576Z,6.92
2023-03-04T13:45:32.844Z,6.92
2023-03-04T13:48:31.322Z,6.94
2023-03-04T13:51:28.875Z,6.87
2023-03-04T13:54:18.535Z,6.84
2023-03-04T13:57:22.364Z,7.03
2023-03-04T14:00:14.331Z,7.13
2023-03-04T14:03:14.720Z,7.30
2023-03-04T14:06:12.335Z,7.14
2023-03-04T14:08:59.273Z,7.30
2023-03-04T14:11:45.623Z,7.30
2023-03-04T14:14:37.735Z,7.29
2023-03-04T14:17:28.159Z,7.18
2023-03-04T14:20:25.780Z,7.00
2023-03-04T14:23:27.554Z,7.07
2023-03-04T14:26:16.130Z,7.05
2023-03-04T14:29:02.959Z,7.01
2023-03-04T14:31:49.946Z,7.06
2023-03-04T14:34:38.781Z,6.81
2023-03-04T14:37:27.855Z,6.71
2023-03-04T14:40:23.171Z,6.68
2023-03-04T14:43:14.351Z,6.72
2023-03-04T14:46:03.504Z,6.93
2023-03-04T14:48:52.529Z,7.05
2023-03-04T14:51:45.953Z,6.93
2023-03-04T14:54:36.073Z,6.94
2023-03-04T14:57:26.739Z,7.05
2023-03-04T15:00:17.056Z,6.92
2023-03-04T15:03:07.303Z,6.91
2023-03-04T15:05:55.680Z,6.94
2023-03-04T15:08:43.042Z,6.84
2023-03-04T15:11:31.836Z,6.77
2023-03-04T15:14:43.990Z,6.73
2023-03-04T15:17:37.585Z,6.73
2023-03-04T15:20:27.645Z,6.61
2023-03-04T15:23:14.765Z,6.57
2023-03-04T15:26:03.110Z,6.45
2023-03-04T15:28:49.562Z,6.40
2023-03-04T15:31:37.206Z,6.31
2023-03-04T15:34:23.252Z,6.15
2023-03-04T15:37:19.392Z,6.00
2023-03-04T15:40:13.810Z,5.97
2023-03-04T15:43:02.762Z,5.98
2023-03-04T15:45:51.163Z,6.00
2023-03-04T15:48:38.798Z,6.01
2023-03-04T15:51:30.068Z,6.01
2023-03-04T15:54:18.314Z,6.07
2023-03-04T15:57:09.159Z,6.08
2023-03-04T15:59:55.637Z,6.13
2023-03-04T16:02:42.362Z,6.19
2023-03-04T16:05:30.056Z,6.20
2023-03-04T16:08:19.212Z,6.22
2023-03-04T16:11:06.035Z,6.17
2023-03-04T16:13:53.198Z,6.14
2023-03-04T16:16:39.634Z,6.13
2023-03-04T16:19:25.843Z,6.12
2023-03-04T16:22:16.041Z,6.08
2023-03-04T16:25:02.274Z,6.08
2023-03-04T16:27:48.933Z,6.03
2023-03-04T16:30:35.598Z,6.07
2023-03-04T16:33:21.949Z,6.01
2023-03-04T16:36:15.337Z,6.01
2023-03-04T16:39:09.141Z,6.07
2023-03-04T16:41:55.919Z,6.02
2023-03-04T16:44:42.236Z,5.98
2023-03-04T16:47:28.803Z,6.02
2023-03-04T16:50:16.416Z,6.01
2023-03-04T16:53:02.626Z,6.00
2023-03-04T16:55:50.353Z,5.91
2023-03-04T16:58:37.058Z,5.88
2023-03-04T17:01:25.881Z,5.89
2023-03-04T17:04:12.760Z,5.87
2023-03-04T17:06:58.994Z,5.92
2023-03-04T17:09:45.490Z,5.89
2023-03-04T17:12:33.615Z,5.82
2023-03-04T17:15:20.707Z,5.83
2023-03-04T17:18:06.864Z,5.79
2023-03-04T17:20:53.421Z,5.81
2023-03-04T17:23:39.940Z,5.80
2023-03-04T17:26:26.360Z,5.81
2023-03-04T17:29:14.184Z,5.77
2023-03-04T17:32:00.555Z,5.75
2023-03-04T17:34:47.012Z,5.73
2023-03-04T17:37:33.328Z,5.73
2023-03-04T17:40:19.998Z,5.74
2023-03-04T17:43:11.291Z,5.70
2023-03-04T17:46:07.559Z,5.65
2023-03-04T17:48:56.051Z,5.62
2023-03-04T17:51:43.879Z,5.59
2023-03-04T17:54:30.147Z,5.61
2023-03-04T17:57:16.805Z,5.56
2023-03-04T18:00:03.798Z,5.60
2023-03-04T18:02:52.061Z,5.58
2023-03-04T18:05:38.457Z,5.58
2023-03-04T18:08:25.701Z,5.53
2023-03-04T18:11:12.754Z,5.54
2023-03-04T18:13:59.161Z,5.53
2023-03-04T18:16:45.656Z,5.49
2023-03-04T18:19:33.534Z,5.50
2023-03-04T18:22:19.656Z,5.47
2023-03-04T18:25:07.038Z,5.49
2023-03-04T18:27:53.685Z,5.41
2023-03-04T18:30:39.964Z,5.38
2023-03-04T18:33:26.624Z,5.40
2023-03-04T18:36:14.867Z,5.41
2023-03-04T18:39:02.259Z,5.30
2023-03-04T18:41:48.674Z,5.35
2023-03-04T18:44:34.966Z,5.32
2023-03-04T18:47:22.383Z,5.28
2023-03-04T18:50:09.999Z,5.28
2023-03-04T18:52:57.826Z,5.24
2023-03-04T18:55:44.435Z,5.28
2023-03-04T18:58:34.834Z,5.32
2023-03-04T19:01:23.400Z,5.32
2023-03-04T19:04:09.755Z,5.31
2023-03-04T19:06:56.528Z,5.26
2023-03-04T19:09:44.188Z,5.20
2023-03-04T19:12:30.808Z,5.21
2023-03-04T19:15:18.147Z,5.18
2023-03-04T19:18:05.398Z,5.14
2023-03-04T19:20:51.565Z,5.14
2023-03-04T19:23:37.736Z,5.13
2023-03-04T19:26:25.713Z,5.11
2023-03-04T19:29:12.169Z,5.09
2023-03-04T19:31:58.713Z,5.14
2023-03-04T19:34:45.584Z,5.07
2023-03-04T19:37:31.919Z,4.95
2023-03-04T19:40:18.528Z,4.80
2023-03-04T19:43:06.239Z,4.78
2023-03-04T19:45:56.886Z,4.76
2023-03-04T19:48:44.967Z,4.77
2023-03-04T19:51:32.636Z,4.75
2023-03-04T19:54:19.046Z,4.70
2023-03-04T19:57:05.362Z,4.60
2023-03-04T19:59:53.110Z,4.59
2023-03-04T20:02:39.986Z,4.57
2023-03-04T20:05:26.729Z,4.51
2023-03-04T20:08:13.558Z,4.52
2023-03-04T20:11:00.245Z,4.51
2023-03-04T20:13:46.509Z,4.60
2023-03-04T20:16:35.319Z,4.57
2023-03-04T20:19:21.799Z,4.60
2023-03-04T20:22:08.797Z,4.58
2023-03-04T20:24:55.470Z,4.58
2023-03-04T20:27:41.845Z,4.58
2023-03-04T20:30:28.715Z,4.56
2023-03-04T20:33:16.571Z,4.52
2023-03-04T20:36:03.113Z,4.47
2023-03-04T20:38:57.967Z,4.39
2023-03-04T20:41:48.781Z,4.40
2023-03-04T20:44:35.878Z,4.40
2023-03-04T20:47:22.103Z,4.42
2023-03-04T20:50:11.297Z,4.40
2023-03-04T20:52:57.750Z,4.42
2023-03-04T20:55:44.179Z,4.41
2023-03-04T20:58:30.676Z,4.42
2023-03-04T21:01:17.140Z,4.38
2023-03-04T21:04:04.573Z,4.31
2023-03-04T21:06:53.494Z,4.35
2023-03-04T21:09:39.663Z,4.35
2023-03-04T21:12:25.942Z,4.31
2023-03-04T21:15:12.770Z,4.32
2023-03-04T21:17:59.597Z,4.30
2023-03-04T21:20:48.442Z,4.28
2023-03-04T21:23:38.462Z,4.28
2023-03-04T21:26:25.646Z,4.26
2023-03-04T21:29:12.556Z,4.28
2023-03-04T21:32:20.787Z,4.27
2023-03-04T21:35:15.202Z,4.28
2023-03-04T21:38:01.768Z,4.31
2023-03-04T21:40:49.276Z,4.30
2023-03-04T21:43:35.906Z,4.25
2023-03-04T21:46:23.301Z,4.21
2023-03-04T21:49:14.137Z,4.16
2023-03-04T21:52:00.270Z,4.20
2023-03-04T21:54:47.723Z,4.17
2023-03-04T21:57:35.795Z,4.19
2023-03-04T22:00:22.872Z,4.18
2023-03-04T22:03:09.329Z,4.14
2023-03-04T22:05:59.249Z,4.09
2023-03-04T22:08:46.002Z,4.02
2023-03-04T22:11:33.161Z,4.03
2023-03-04T22:14:20.956Z,4.00
2023-03-04T22:17:07.806Z,3.91
2023-03-04T22:19:55.042Z,3.83
2023-03-04T22:22:41.573Z,3.73
2023-03-04T22:25:28.586Z,3.63
2023-03-04T22:28:14.956Z,3.50
2023-03-04T22:31:02.889Z,3.43
2023-03-04T22:33:49.473Z,3.39
2023-03-04T22:36:37.603Z,3.42
2023-03-04T22:39:23.847Z,3.44
2023-03-04T22:42:11.482Z,3.50
2023-03-04T22:44:57.884Z,3.53
2023-03-04T22:47:49.626Z,3.56
2023-03-04T22:50:36.511Z,3.56
2023-03-04T22:53:25.589Z,3.52
2023-03-04T22:56:13.865Z,3.53
2023-03-04T22:59:00.906Z,3.47
2023-03-04T23:01:47.011Z,3.42
2023-03-04T23:04:34.884Z,3.46
2023-03-04T23:07:21.554Z,3.45
2023-03-04T23:10:10.839Z,3.42
2023-03-04T23:12:57.195Z,3.45
2023-03-04T23:15:43.798Z,3.45
2023-03-04T23:18:30.031Z,3.44
2023-03-04T23:21:20.078Z,3.41
2023-03-04T23:24:08.260Z,3.39
2023-03-04T23:26:54.641Z,3.37
2023-03-04T23:29:41.429Z,3.34
2023-03-04T23:32:27.708Z,3.27
2023-03-04T23:35:14.197Z,3.30
2023-03-04T23:38:01.881Z,3.29
2023-03-04T23:40:48.523Z,3.32
2023-03-04T23:43:34.948Z,3.27
2023-03-04T23:46:21.834Z,3.36
2023-03-04T23:49:09.309Z,3.38
2023-03-04T23:51:55.537Z,3.41
2023-03-04T23:54:43.177Z,3.34
2023-03-04T23:57:29.430Z,3.36
